Cumminsville, Ohio
Current Conditions -  °F | °C
As of 9:58 PM on Wednesday 26 Nov 2014 (Local Time) from KI69 Reporting Station
Clear Clear  
Wind Chill: 34°   Ceiling: Unl
Heat Index: 34°   Visibility: 10mi
Dew Point: 28°   Wind: 3mph
Humidity: 81%   Direction: 360°N
Pressure: 30.05"   Gusts: NA
Location:  39.1683°N, 84.5521°W
Report Text: KI69 270258Z AUTO 36003KT 10SM CLR 01/M02 A3005 RMK AO1
Loading
Personal Weather Stations






























Interactive Weather Map New forecast layout! Learn more

10-Day Weather Forecast

Advertisements
Track Severe Weather on mobile